Time;durP1;ratioP1;P1;durP2;ratioP2;P2;SDS_P1;SDS_P2;PMS_P1;PMS_P2;Temp;Humidity;BMP_temperature;BMP_pressure;BME280_temperature;BME280_humidity;BME280_pressure;Samples;Min_cycle;Max_cycle;Signal;HPM_P1;HPM_P2
2023/11/08 00:00:22;;;;;;;1.90;0.80;;;11.50;86.10;;;;;;5041122;28;20420;-46
2023/11/08 00:02:50;;;;;;;3.93;0.90;;;11.50;86.10;;;;;;5046068;28;20646;-48
2023/11/08 00:05:18;;;;;;;3.10;0.70;;;11.50;86.10;;;;;;5042457;28;20443;-48
2023/11/08 00:07:46;;;;;;;2.50;0.60;;;11.60;86.30;;;;;;5041125;28;20517;-45
2023/11/08 00:10:14;;;;;;;2.60;0.70;;;11.50;86.20;;;;;;5040341;28;20855;-48
2023/11/08 00:12:44;;;;;;;2.07;0.80;;;11.50;86.10;;;;;;5043183;28;20457;-48
2023/11/08 00:15:13;;;;;;;2.60;0.60;;;11.50;87.40;;;;;;5048084;28;20474;-48
2023/11/08 00:17:41;;;;;;;1.77;1.00;;;11.50;86.10;;;;;;5042477;28;20466;-45
2023/11/08 00:20:11;;;;;;;1.50;0.47;;;11.50;86.10;;;;;;5042683;28;20465;-47
2023/11/08 00:22:39;;;;;;;1.63;0.77;;;11.50;86.00;;;;;;5040251;28;20523;-46
2023/11/08 00:25:10;;;;;;;2.07;0.60;;;11.50;86.10;;;;;;5045675;28;21074;-48
2023/11/08 00:27:38;;;;;;;1.10;0.50;;;11.50;86.10;;;;;;5039178;28;20465;-47
2023/11/08 00:30:09;;;;;;;1.87;0.80;;;11.50;86.10;;;;;;5044226;28;20435;-45
2023/11/08 00:32:37;;;;;;;1.37;0.77;;;11.50;86.10;;;;;;5041513;28;20845;-46
2023/11/08 00:35:05;;;;;;;1.83;0.70;;;11.50;86.10;;;;;;5039154;28;20852;-49
2023/11/08 00:37:34;;;;;;;1.73;0.60;;;11.50;86.10;;;;;;5044457;28;21029;-46
2023/11/08 00:40:04;;;;;;;1.73;0.80;;;11.50;86.00;;;;;;5037244;28;20502;-49
2023/11/08 00:42:32;;;;;;;1.70;0.50;;;11.50;86.10;;;;;;5040915;28;20468;-49
2023/11/08 00:45:01;;;;;;;1.03;0.50;;;11.50;86.20;;;;;;5038769;28;20434;-48
2023/11/08 00:47:30;;;;;;;1.00;0.60;;;11.50;86.10;;;;;;5044413;28;20467;-47
2023/11/08 00:49:59;;;;;;;1.50;0.80;;;11.50;86.20;;;;;;5036684;28;20456;-47
2023/11/08 00:52:28;;;;;;;2.03;0.60;;;11.50;86.20;;;;;;5042897;28;20469;-49
2023/11/08 00:54:56;;;;;;;1.10;0.50;;;11.50;86.20;;;;;;5039683;28;20454;-48
2023/11/08 00:57:24;;;;;;;1.97;0.70;;;11.50;86.30;;;;;;5039143;28;20494;-47
2023/11/08 00:59:52;;;;;;;1.10;0.50;;;11.50;86.30;;;;;;5043498;28;20445;-47
2023/11/08 01:02:20;;;;;;;1.27;0.70;;;11.50;86.30;;;;;;5046156;28;20482;-47
2023/11/08 01:04:49;;;;;;;2.23;0.70;;;11.50;86.20;;;;;;5047922;28;20462;-46
2023/11/08 01:07:17;;;;;;;4.60;0.80;;;11.50;86.30;;;;;;5057639;28;20470;-47
2023/11/08 01:09:45;;;;;;;1.67;0.70;;;11.50;86.20;;;;;;5058508;28;20452;-46
2023/11/08 01:12:14;;;;;;;1.73;0.80;;;11.50;86.20;;;;;;5049666;28;20928;-49
2023/11/08 01:14:42;;;;;;;1.57;0.70;;;11.50;86.10;;;;;;5035458;28;20448;-47
2023/11/08 01:17:11;;;;;;;1.73;0.70;;;11.50;86.20;;;;;;5039603;28;20468;-47
2023/11/08 01:19:39;;;;;;;2.47;0.70;;;11.50;86.20;;;;;;5036830;28;20524;-48
2023/11/08 01:22:09;;;;;;;1.87;0.80;;;11.50;86.20;;;;;;5040741;28;20476;-47
2023/11/08 01:24:41;;;;;;;1.00;0.50;;;11.50;86.20;;;;;;5040129;28;20475;-48
2023/11/08 01:27:09;;;;;;;1.30;0.60;;;11.50;86.10;;;;;;5040729;28;20469;-47
2023/11/08 01:29:37;;;;;;;1.00;0.60;;;11.40;86.20;;;;;;5040000;28;20956;-47
2023/11/08 01:32:07;;;;;;;1.90;0.90;;;11.40;86.10;;;;;;5040830;28;20853;-46
2023/11/08 01:34:36;;;;;;;2.23;0.87;;;11.50;86.20;;;;;;5039934;28;20453;-48
2023/11/08 01:37:05;;;;;;;4.17;0.97;;;11.40;86.10;;;;;;5038535;28;20882;-45
2023/11/08 01:39:35;;;;;;;1.27;0.60;;;11.40;86.10;;;;;;5037403;28;20455;-47
2023/11/08 01:42:03;;;;;;;1.90;0.80;;;11.40;86.20;;;;;;5043366;28;20531;-49
2023/11/08 01:44:31;;;;;;;2.67;1.40;;;11.40;86.10;;;;;;5043256;28;20452;-49
2023/11/08 01:46:59;;;;;;;1.97;0.60;;;11.40;86.00;;;;;;5043471;28;20496;-48
2023/11/08 01:49:28;;;;;;;1.97;0.80;;;11.50;86.20;;;;;;5046451;28;20835;-47
2023/11/08 01:51:59;;;;;;;1.40;0.80;;;11.50;86.20;;;;;;5047014;28;20474;-48
2023/11/08 01:54:28;;;;;;;2.20;0.80;;;11.50;86.10;;;;;;5043375;28;20442;-49
2023/11/08 01:56:59;;;;;;;2.13;0.70;;;11.40;86.10;;;;;;5043630;28;20485;-46
2023/11/08 01:59:27;;;;;;;2.53;0.80;;;11.40;86.10;;;;;;5048008;28;20432;-45
2023/11/08 02:01:57;;;;;;;2.37;0.60;;;11.40;86.10;;;;;;5041197;28;20884;-48
2023/11/08 02:04:27;;;;;;;2.73;0.70;;;11.40;86.10;;;;;;5044837;28;20476;-46
2023/11/08 02:06:55;;;;;;;1.50;0.73;;;11.40;86.10;;;;;;5049141;28;20468;-46
2023/11/08 02:09:24;;;;;;;2.63;0.60;;;11.40;86.10;;;;;;5046460;28;20486;-47
2023/11/08 02:11:57;;;;;;;1.40;0.90;;;11.40;86.00;;;;;;5049295;28;21061;-48
2023/11/08 02:14:28;;;;;;;2.27;1.03;;;11.40;86.10;;;;;;5050121;28;21415;-50
2023/11/08 02:16:56;;;;;;;3.97;1.10;;;11.40;86.10;;;;;;5047546;28;20492;-47
2023/11/08 02:19:25;;;;;;;2.10;0.83;;;11.40;86.10;;;;;;5044432;28;20456;-45
2023/11/08 02:21:53;;;;;;;1.57;0.63;;;11.40;86.10;;;;;;5045360;28;20535;-47
2023/11/08 02:24:23;;;;;;;1.27;0.73;;;11.40;86.10;;;;;;5045573;28;20515;-46
2023/11/08 02:26:51;;;;;;;1.33;0.90;;;11.40;87.30;;;;;;5045818;28;20469;-47
2023/11/08 02:29:19;;;;;;;3.07;0.80;;;11.40;86.00;;;;;;5049467;28;20436;-47
2023/11/08 02:31:50;;;;;;;2.60;0.67;;;11.40;86.10;;;;;;5049960;28;20460;-47
2023/11/08 02:34:20;;;;;;;1.30;0.50;;;11.40;86.10;;;;;;5047499;28;20443;-47
2023/11/08 02:36:49;;;;;;;1.43;0.87;;;11.40;86.10;;;;;;5049693;28;20475;-47
2023/11/08 02:39:18;;;;;;;1.30;0.77;;;11.40;85.90;;;;;;5043957;28;20468;-47
2023/11/08 02:41:50;;;;;;;1.67;0.80;;;11.40;85.90;;;;;;5047834;28;20564;-46
2023/11/08 02:44:18;;;;;;;2.03;1.10;;;11.40;85.90;;;;;;5050704;28;20758;-46
2023/11/08 02:46:47;;;;;;;1.73;0.77;;;11.40;85.90;;;;;;5048261;28;20466;-47
2023/11/08 02:49:15;;;;;;;1.83;0.80;;;11.40;85.90;;;;;;5040507;28;20445;-47
2023/11/08 02:51:44;;;;;;;2.30;1.63;;;11.40;86.00;;;;;;5047371;28;20915;-46
2023/11/08 02:54:12;;;;;;;1.30;0.60;;;11.40;85.90;;;;;;5048633;28;20448;-45
2023/11/08 02:56:41;;;;;;;1.30;0.60;;;11.40;85.90;;;;;;5046007;28;20832;-47
2023/11/08 02:59:11;;;;;;;1.33;0.57;;;11.40;85.90;;;;;;5040039;28;20941;-45
2023/11/08 03:01:42;;;;;;;1.83;0.63;;;11.40;85.80;;;;;;5043921;28;21010;-47
2023/11/08 03:04:10;;;;;;;1.40;0.50;;;11.40;86.00;;;;;;5044153;28;20463;-47
2023/11/08 03:06:41;;;;;;;2.40;0.50;;;11.40;86.10;;;;;;5046393;28;20464;-47
2023/11/08 03:09:10;;;;;;;1.60;1.00;;;11.30;85.80;;;;;;5044311;28;20456;-48
2023/11/08 03:11:39;;;;;;;1.70;0.80;;;11.40;85.90;;;;;;5046473;28;20558;-46
2023/11/08 03:14:07;;;;;;;2.00;0.60;;;11.30;85.70;;;;;;5046710;28;20933;-47
2023/11/08 03:16:37;;;;;;;1.90;0.80;;;11.30;85.80;;;;;;5048826;28;20481;-47
2023/11/08 03:19:06;;;;;;;2.03;0.80;;;11.30;85.80;;;;;;5048988;28;21097;-48
2023/11/08 03:21:34;;;;;;;2.87;1.00;;;11.30;85.80;;;;;;5048638;28;20464;-45
2023/11/08 03:24:06;;;;;;;1.20;0.80;;;11.30;85.70;;;;;;5047237;28;20468;-45
2023/11/08 03:26:34;;;;;;;1.97;0.80;;;11.40;85.80;;;;;;5042417;28;20538;-45
2023/11/08 03:29:02;;;;;;;1.87;0.50;;;11.30;85.80;;;;;;5049288;28;20433;-46
2023/11/08 03:31:32;;;;;;;1.30;0.60;;;11.40;85.90;;;;;;5048346;28;20462;-45
2023/11/08 03:34:03;;;;;;;1.80;0.70;;;11.30;85.80;;;;;;5048918;28;20445;-45
2023/11/08 03:36:32;;;;;;;1.70;0.70;;;11.30;85.80;;;;;;5046542;28;20458;-46
2023/11/08 03:39:00;;;;;;;1.93;0.70;;;11.30;85.80;;;;;;5043726;28;20504;-47
2023/11/08 03:41:29;;;;;;;2.33;0.80;;;11.30;85.70;;;;;;5048078;28;20477;-46
2023/11/08 03:43:57;;;;;;;1.83;0.70;;;11.30;85.70;;;;;;5047359;28;20498;-46
2023/11/08 03:46:25;;;;;;;1.63;0.90;;;11.30;85.80;;;;;;5047572;28;20885;-45
2023/11/08 03:48:54;;;;;;;1.63;1.07;;;11.30;85.70;;;;;;5044386;28;20444;-47
2023/11/08 03:51:24;;;;;;;1.90;1.30;;;11.30;85.70;;;;;;5046780;28;20427;-45
2023/11/08 03:53:52;;;;;;;1.63;0.87;;;11.30;85.90;;;;;;5045287;28;20807;-47
2023/11/08 03:56:21;;;;;;;1.73;0.73;;;11.30;85.80;;;;;;5048078;28;20635;-44
2023/11/08 03:58:49;;;;;;;1.30;0.70;;;11.30;85.80;;;;;;5043113;28;20859;-45
2023/11/08 04:01:17;;;;;;;1.10;0.70;;;11.30;85.70;;;;;;5044846;28;20928;-46
2023/11/08 04:03:46;;;;;;;3.13;0.60;;;11.30;85.80;;;;;;5067181;28;20464;-45
2023/11/08 04:06:14;;;;;;;1.80;0.80;;;11.30;85.70;;;;;;5065139;28;20462;-45
2023/11/08 04:08:43;;;;;;;1.80;0.60;;;11.30;85.70;;;;;;5041590;28;20455;-46
2023/11/08 04:11:11;;;;;;;2.33;1.00;;;11.30;85.70;;;;;;5044641;28;20445;-46
2023/11/08 04:13:40;;;;;;;2.20;1.10;;;11.30;85.80;;;;;;5045908;28;20431;-47
2023/11/08 04:16:11;;;;;;;1.47;0.80;;;11.30;85.80;;;;;;5046289;28;20458;-46
2023/11/08 04:18:39;;;;;;;1.90;0.60;;;11.30;85.70;;;;;;5042518;28;20464;-45
2023/11/08 04:21:07;;;;;;;1.47;0.70;;;11.30;85.70;;;;;;5042570;28;20539;-45
2023/11/08 04:23:35;;;;;;;1.37;0.60;;;11.20;85.60;;;;;;5041610;28;20443;-47
2023/11/08 04:26:06;;;;;;;1.13;0.60;;;11.30;85.70;;;;;;5045657;28;20472;-45
2023/11/08 04:28:36;;;;;;;1.63;0.60;;;11.20;85.60;;;;;;5042617;28;20468;-47
2023/11/08 04:31:04;;;;;;;2.70;0.90;;;11.30;85.70;;;;;;5042943;28;20430;-45
2023/11/08 04:33:32;;;;;;;1.20;0.67;;;11.30;85.60;;;;;;5065862;28;20630;-46
2023/11/08 04:36:00;;;;;;;1.60;0.60;;;11.30;85.60;;;;;;5065922;28;20445;-46
2023/11/08 04:38:30;;;;;;;1.70;0.93;;;11.20;85.50;;;;;;5061780;28;20603;-45
2023/11/08 04:40:58;;;;;;;1.60;0.60;;;11.20;85.60;;;;;;5063075;28;20448;-46
2023/11/08 04:43:29;;;;;;;1.60;0.73;;;11.20;85.60;;;;;;5065032;28;20464;-46
2023/11/08 04:45:57;;;;;;;2.10;1.07;;;11.30;85.70;;;;;;5062553;28;20484;-46
2023/11/08 04:48:25;;;;;;;1.20;0.57;;;11.20;85.70;;;;;;5062587;28;20578;-47
2023/11/08 04:50:53;;;;;;;2.30;0.70;;;11.30;85.70;;;;;;5065847;28;20931;-46
2023/11/08 04:53:21;;;;;;;1.67;0.60;;;11.20;85.60;;;;;;5062637;28;20492;-46
2023/11/08 04:55:49;;;;;;;1.87;0.70;;;11.30;85.80;;;;;;5060698;28;20847;-46
2023/11/08 04:58:18;;;;;;;2.10;1.20;;;11.20;85.70;;;;;;5063612;28;21014;-46
2023/11/08 05:00:47;;;;;;;2.47;0.70;;;11.20;85.70;;;;;;5061701;28;20673;-47
2023/11/08 05:03:15;;;;;;;3.23;0.93;;;11.20;85.70;;;;;;5065502;28;20503;-47
2023/11/08 05:05:43;;;;;;;2.83;0.80;;;11.20;85.70;;;;;;5062341;28;20474;-47
2023/11/08 05:08:11;;;;;;;2.07;0.80;;;11.20;85.80;;;;;;5063100;28;20584;-45
2023/11/08 05:10:39;;;;;;;2.43;1.07;;;11.30;85.80;;;;;;5060288;28;20443;-47
2023/11/08 05:13:07;;;;;;;1.83;0.70;;;11.20;85.70;;;;;;5060253;28;20488;-47
2023/11/08 05:15:36;;;;;;;1.40;0.70;;;11.20;85.70;;;;;;5064227;28;20462;-46
2023/11/08 05:18:05;;;;;;;3.53;0.80;;;11.30;85.70;;;;;;5060093;28;20475;-47
2023/11/08 05:20:36;;;;;;;1.10;0.60;;;11.20;85.70;;;;;;5058185;28;20425;-46
2023/11/08 05:23:05;;;;;;;3.10;0.80;;;11.30;85.80;;;;;;5061595;28;20471;-46
2023/11/08 05:25:33;;;;;;;2.67;0.70;;;11.20;85.70;;;;;;5062940;28;20486;-46
2023/11/08 05:28:01;;;;;;;1.70;0.77;;;11.20;85.70;;;;;;5059489;28;20887;-46
2023/11/08 05:30:30;;;;;;;1.87;0.90;;;11.30;85.70;;;;;;5062804;28;20496;-46
2023/11/08 05:32:58;;;;;;;1.90;0.70;;;11.20;85.60;;;;;;5064770;28;20475;-46
2023/11/08 05:35:28;;;;;;;2.33;1.10;;;11.20;85.70;;;;;;5066488;28;20446;-46
2023/11/08 05:37:56;;;;;;;1.40;0.80;;;11.20;85.70;;;;;;5064914;28;20453;-47
2023/11/08 05:40:24;;;;;;;1.67;0.90;;;11.20;85.70;;;;;;5064694;28;20438;-47
2023/11/08 05:42:53;;;;;;;2.80;0.80;;;11.20;86.10;;;;;;5067109;28;20555;-47
2023/11/08 05:45:22;;;;;;;2.23;0.90;;;11.20;85.70;;;;;;5062720;28;21000;-47
2023/11/08 05:47:50;;;;;;;2.17;0.77;;;11.20;85.60;;;;;;5060571;28;20852;-46
2023/11/08 05:50:18;;;;;;;1.40;1.03;;;11.20;85.70;;;;;;5060559;28;20535;-47
2023/11/08 05:52:47;;;;;;;1.87;1.07;;;11.20;85.60;;;;;;5063070;28;20892;-46
2023/11/08 05:55:16;;;;;;;1.30;0.80;;;11.20;85.60;;;;;;5065791;28;20438;-45
2023/11/08 05:57:44;;;;;;;1.40;0.80;;;11.20;85.60;;;;;;5064912;28;20532;-45
2023/11/08 06:00:14;;;;;;;1.40;0.80;;;11.20;85.60;;;;;;5061345;28;20804;-45
2023/11/08 06:02:42;;;;;;;2.10;1.17;;;11.20;85.70;;;;;;5063423;28;20495;-47
2023/11/08 06:05:10;;;;;;;2.13;0.80;;;11.20;85.50;;;;;;5065846;28;20464;-47
2023/11/08 06:07:40;;;;;;;2.80;1.57;;;11.20;85.50;;;;;;5065684;28;20464;-45
2023/11/08 06:10:10;;;;;;;3.73;1.47;;;11.20;85.60;;;;;;5060743;28;20450;-47
2023/11/08 06:12:39;;;;;;;3.57;0.93;;;11.20;85.60;;;;;;5059106;28;20475;-48
2023/11/08 06:15:09;;;;;;;2.33;1.00;;;11.10;85.40;;;;;;5056762;28;20437;-48
2023/11/08 06:17:37;;;;;;;1.80;0.70;;;11.20;85.70;;;;;;5063060;28;20477;-49
2023/11/08 06:20:09;;;;;;;1.83;0.67;;;11.20;85.60;;;;;;5058480;28;20445;-49
2023/11/08 06:22:37;;;;;;;1.67;0.80;;;11.10;85.50;;;;;;5060320;28;20556;-49
2023/11/08 06:25:06;;;;;;;2.03;1.07;;;11.10;85.60;;;;;;5061823;28;20457;-49
2023/11/08 06:27:35;;;;;;;2.07;0.73;;;11.10;85.50;;;;;;5056144;28;20484;-49
2023/11/08 06:30:04;;;;;;;1.50;0.50;;;11.20;85.60;;;;;;5063850;28;20430;-48
2023/11/08 06:32:32;;;;;;;2.43;1.00;;;11.20;85.60;;;;;;5067885;28;20463;-48
2023/11/08 06:35:02;;;;;;;1.40;0.80;;;11.10;85.60;;;;;;5065612;28;20478;-47
2023/11/08 06:37:30;;;;;;;1.73;0.70;;;11.20;85.50;;;;;;5065950;28;21032;-48
2023/11/08 06:39:59;;;;;;;2.80;0.80;;;11.20;85.60;;;;;;5062258;28;20446;-48
2023/11/08 06:42:27;;;;;;;1.40;0.70;;;11.10;85.60;;;;;;5068063;28;20901;-46
2023/11/08 06:44:58;;;;;;;2.63;1.03;;;11.20;85.70;;;;;;5064942;28;20477;-46
2023/11/08 06:47:27;;;;;;;1.83;0.70;;;11.10;85.60;;;;;;5061373;28;20482;-45
2023/11/08 06:49:58;;;;;;;1.70;0.70;;;11.20;85.70;;;;;;5062575;28;20455;-47
2023/11/08 06:52:29;;;;;;;1.73;0.80;;;11.20;85.70;;;;;;5050617;28;20475;-47
2023/11/08 06:54:59;;;;;;;2.23;0.60;;;11.10;85.60;;;;;;5047659;28;20514;-47
2023/11/08 06:57:28;;;;;;;4.13;0.67;;;11.20;85.80;;;;;;5045929;28;20856;-50
2023/11/08 06:59:58;;;;;;;3.40;1.00;;;11.10;85.70;;;;;;5049054;28;20612;-46
2023/11/08 07:02:28;;;;;;;1.40;0.63;;;11.20;85.90;;;;;;5048661;28;20209;-47
2023/11/08 07:04:56;;;;;;;2.60;0.87;;;11.10;85.70;;;;;;5048875;28;20467;-48
2023/11/08 07:07:24;;;;;;;2.03;1.03;;;11.10;85.60;;;;;;5055739;28;20975;-45
2023/11/08 07:09:53;;;;;;;5.33;1.20;;;11.20;85.70;;;;;;5063074;28;20541;-48
2023/11/08 07:12:21;;;;;;;1.87;0.80;;;11.10;85.60;;;;;;5051972;28;20472;-47
2023/11/08 07:14:51;;;;;;;1.27;0.60;;;11.20;85.70;;;;;;5049224;28;20444;-46
2023/11/08 07:17:22;;;;;;;1.90;1.00;;;11.10;85.70;;;;;;5044348;28;20480;-48
2023/11/08 07:19:53;;;;;;;2.70;1.17;;;11.10;85.60;;;;;;5047102;28;20518;-47
2023/11/08 07:22:22;;;;;;;4.10;1.10;;;11.10;87.20;;;;;;5040367;28;21035;-47
2023/11/08 07:24:50;;;;;;;6.30;1.33;;;11.10;86.90;;;;;;5033367;28;20439;-46
2023/11/08 07:27:20;;;;;;;6.18;1.40;;;11.10;85.50;;;;;;5033445;28;20485;-48
2023/11/08 07:29:48;;;;;;;1.70;0.93;;;11.10;85.60;;;;;;5018827;28;20205;-47
2023/11/08 07:32:18;;;;;;;2.93;0.97;;;11.10;85.70;;;;;;5046307;28;20529;-48
2023/11/08 07:34:47;;;;;;;2.10;0.90;;;11.10;85.70;;;;;;5056070;28;20509;-47
2023/11/08 07:37:15;;;;;;;6.60;1.43;;;11.10;85.60;;;;;;5055721;28;20475;-46
2023/11/08 07:39:44;;;;;;;3.43;0.80;;;11.10;85.50;;;;;;5059540;28;20450;-49
2023/11/08 07:42:13;;;;;;;2.43;1.00;;;11.10;85.40;;;;;;5061767;28;20573;-46
2023/11/08 07:44:42;;;;;;;2.57;0.97;;;11.10;85.30;;;;;;5057246;28;20468;-47
2023/11/08 07:47:11;;;;;;;1.77;1.00;;;11.10;85.30;;;;;;5057770;28;20486;-46
2023/11/08 07:49:40;;;;;;;2.67;0.83;;;11.10;85.20;;;;;;5061357;28;20450;-47
2023/11/08 07:52:09;;;;;;;2.80;1.40;;;11.10;85.20;;;;;;5059942;28;20519;-45
2023/11/08 07:54:39;;;;;;;2.50;1.07;;;11.10;86.80;;;;;;5053439;28;20501;-46
2023/11/08 07:57:07;;;;;;;4.40;1.30;;;11.10;85.30;;;;;;5052521;28;21015;-47
2023/11/08 07:59:35;;;;;;;2.63;1.00;;;11.10;85.30;;;;;;5056675;28;20515;-47
2023/11/08 08:02:03;;;;;;;2.80;1.03;;;11.10;85.20;;;;;;5058203;28;20556;-46
2023/11/08 08:04:32;;;;;;;2.07;1.27;;;11.10;85.40;;;;;;5053803;28;20463;-47
2023/11/08 08:07:01;;;;;;;2.13;0.70;;;11.10;85.30;;;;;;5052010;28;20830;-46
2023/11/08 08:09:31;;;;;;;1.83;1.07;;;11.10;85.30;;;;;;5055489;28;20435;-47
2023/11/08 08:12:00;;;;;;;1.70;0.53;;;11.20;85.40;;;;;;5055298;28;20468;-46
2023/11/08 08:14:28;;;;;;;2.20;0.83;;;11.10;85.30;;;;;;5053359;28;20450;-47
2023/11/08 08:16:58;;;;;;;2.03;0.87;;;11.20;85.40;;;;;;5056221;28;20468;-47
2023/11/08 08:19:29;;;;;;;1.80;0.77;;;11.10;85.30;;;;;;5062976;28;20436;-46
2023/11/08 08:22:00;;;;;;;3.20;1.10;;;11.10;85.30;;;;;;5053124;28;20471;-45
2023/11/08 08:24:31;;;;;;;1.73;0.83;;;11.20;85.20;;;;;;5051568;28;20452;-47
2023/11/08 08:27:00;;;;;;;2.20;0.80;;;11.20;85.20;;;;;;5051244;28;20472;-46
2023/11/08 08:29:30;;;;;;;1.70;1.17;;;11.20;85.00;;;;;;5054461;28;20523;-46
2023/11/08 08:31:59;;;;;;;1.93;0.80;;;11.20;84.90;;;;;;5052355;28;20491;-47
2023/11/08 08:34:28;;;;;;;1.40;0.70;;;11.20;84.60;;;;;;5065911;28;20415;-45
2023/11/08 08:36:59;;;;;;;3.00;0.80;;;11.20;84.50;;;;;;5059600;28;20477;-45
2023/11/08 08:39:28;;;;;;;1.73;0.70;;;11.20;84.50;;;;;;5051986;28;20441;-45
2023/11/08 08:42:01;;;;;;;1.20;0.60;;;11.20;84.50;;;;;;5054248;28;20527;-45
2023/11/08 08:44:30;;;;;;;1.70;1.03;;;11.20;84.50;;;;;;5051955;28;20436;-47
2023/11/08 08:46:59;;;;;;;1.60;0.77;;;11.20;85.50;;;;;;5054440;28;20557;-46
2023/11/08 08:49:27;;;;;;;1.40;0.60;;;11.20;84.50;;;;;;5059333;28;20427;-46
2023/11/08 08:51:55;;;;;;;2.37;0.87;;;11.20;84.50;;;;;;5061904;28;20462;-45
2023/11/08 08:54:25;;;;;;;2.43;1.40;;;11.20;84.60;;;;;;5062147;28;20432;-45
2023/11/08 08:56:53;;;;;;;2.47;0.80;;;11.20;84.50;;;;;;5059673;28;21002;-45
2023/11/08 08:59:23;;;;;;;1.90;1.50;;;11.20;84.50;;;;;;5057774;28;20839;-45
2023/11/08 09:01:52;;;;;;;1.43;1.00;;;11.20;84.50;;;;;;5050534;28;20833;-45
2023/11/08 09:04:24;;;;;;;2.13;1.03;;;11.30;84.70;;;;;;5055115;28;20422;-45
2023/11/08 09:06:53;;;;;;;1.37;0.90;;;11.30;84.70;;;;;;5055350;28;20569;-46
2023/11/08 09:09:21;;;;;;;4.40;1.23;;;11.30;84.60;;;;;;5060438;28;20944;-47
2023/11/08 09:11:53;;;;;;;3.33;0.80;;;11.30;85.00;;;;;;5051842;28;20467;-46
2023/11/08 09:14:23;;;;;;;1.63;0.60;;;11.30;84.60;;;;;;5051159;28;20435;-47
2023/11/08 09:16:56;;;;;;;2.40;0.87;;;11.30;84.70;;;;;;5065862;28;21039;-47
2023/11/08 09:19:24;;;;;;;1.50;0.87;;;11.30;84.60;;;;;;5054474;28;20474;-47
2023/11/08 09:21:53;;;;;;;3.70;0.83;;;11.30;84.60;;;;;;5054055;28;20887;-46
2023/11/08 09:24:21;;;;;;;2.67;0.87;;;11.30;84.60;;;;;;5054265;28;20495;-46
2023/11/08 09:26:49;;;;;;;1.63;0.77;;;11.30;84.60;;;;;;5056425;28;21026;-47
2023/11/08 09:29:18;;;;;;;1.43;0.77;;;11.30;84.70;;;;;;5060241;28;20442;-46
2023/11/08 09:31:48;;;;;;;2.50;1.20;;;11.30;84.60;;;;;;5056030;28;20475;-46
2023/11/08 09:34:17;;;;;;;2.93;0.70;;;11.30;84.60;;;;;;5052766;28;20748;-46
2023/11/08 09:36:46;;;;;;;2.23;1.00;;;11.30;84.60;;;;;;5052293;28;20493;-47
2023/11/08 09:39:16;;;;;;;1.10;0.60;;;11.30;84.60;;;;;;5051126;28;20436;-49
2023/11/08 09:41:44;;;;;;;1.60;0.63;;;11.30;84.60;;;;;;5054678;28;20554;-47
2023/11/08 09:44:15;;;;;;;1.83;0.70;;;11.30;84.70;;;;;;5052693;28;20451;-47
2023/11/08 09:46:44;;;;;;;1.73;0.50;;;11.30;84.60;;;;;;5053618;28;21047;-47
2023/11/08 09:49:13;;;;;;;1.80;0.70;;;11.30;84.70;;;;;;5059052;28;20455;-46
2023/11/08 09:51:42;;;;;;;2.17;0.80;;;11.30;84.60;;;;;;5061753;28;21041;-46
2023/11/08 09:54:13;;;;;;;1.20;0.70;;;11.30;84.60;;;;;;5053385;28;20548;-46
2023/11/08 09:56:44;;;;;;;1.03;0.53;;;11.30;84.60;;;;;;5061133;28;20549;-46
2023/11/08 09:59:15;;;;;;;3.10;0.90;;;11.30;84.70;;;;;;5057860;28;20818;-46
2023/11/08 10:01:45;;;;;;;1.53;0.70;;;11.30;84.60;;;;;;5078774;28;20807;-46
2023/11/08 10:04:16;;;;;;;2.00;0.93;;;11.30;84.60;;;;;;5062511;28;20471;-48
2023/11/08 10:06:51;;;;;;;1.50;0.77;;;11.30;84.70;;;;;;5052356;28;20500;-45
2023/11/08 10:09:28;;;;;;;2.00;0.70;;;11.30;84.70;;;;;;5056545;28;20473;-49
2023/11/08 10:11:56;;;;;;;3.50;0.80;;;11.30;84.60;;;;;;5050266;28;20458;-46
2023/11/08 10:14:32;;;;;;;2.30;0.93;;;11.30;84.70;;;;;;5060121;28;20441;-47
2023/11/08 10:17:01;;;;;;;1.40;0.60;;;11.30;84.60;;;;;;5058418;28;20481;-47
2023/11/08 10:19:40;;;;;;;2.77;1.10;;;11.30;84.60;;;;;;5057599;28;20446;-46
2023/11/08 10:22:20;;;;;;;1.33;0.70;;;11.30;84.60;;;;;;5061228;28;20527;-46
2023/11/08 10:24:55;;;;;;;1.97;1.10;;;11.30;84.60;;;;;;5059299;28;20438;-46
2023/11/08 10:27:24;;;;;;;2.17;0.83;;;11.30;84.60;;;;;;5056886;28;20605;-47
2023/11/08 10:29:55;;;;;;;1.33;0.70;;;11.30;84.70;;;;;;5056635;28;20428;-46
2023/11/08 10:32:25;;;;;;;1.60;0.90;;;11.30;84.60;;;;;;5064237;28;20458;-46
2023/11/08 10:35:12;;;;;;;2.40;0.60;;;11.30;84.60;;;;;;5069275;28;20487;-46
2023/11/08 10:37:42;;;;;;;2.43;1.10;;;11.30;85.80;;;;;;5057871;28;20474;-46
2023/11/08 10:40:13;;;;;;;1.07;0.60;;;11.30;84.70;;;;;;5058740;28;20442;-47
2023/11/08 10:42:42;;;;;;;1.63;0.80;;;11.30;84.60;;;;;;5056829;28;20527;-46
2023/11/08 10:45:11;;;;;;;1.50;0.70;;;11.30;84.60;;;;;;5056479;28;20518;-46
2023/11/08 10:47:40;;;;;;;2.60;1.20;;;11.30;84.60;;;;;;5063239;28;20480;-46
2023/11/08 10:50:11;;;;;;;2.90;0.83;;;11.20;84.50;;;;;;5054589;28;20838;-47
2023/11/08 10:52:42;;;;;;;2.80;0.90;;;11.30;84.40;;;;;;5059635;28;20566;-47
2023/11/08 10:55:11;;;;;;;3.30;1.03;;;11.30;84.40;;;;;;5062069;28;20439;-49
2023/11/08 10:57:44;;;;;;;1.73;0.67;;;11.30;84.40;;;;;;5057252;28;20460;-46
2023/11/08 11:00:14;;;;;;;2.20;0.90;;;11.30;84.60;;;;;;5063101;28;20435;-47
2023/11/08 11:02:43;;;;;;;1.60;0.70;;;11.30;84.20;;;;;;5050410;28;20920;-47
2023/11/08 11:05:18;;;;;;;2.70;1.00;;;11.30;84.20;;;;;;5062077;28;20462;-47
2023/11/08 11:07:49;;;;;;;2.40;0.83;;;11.30;83.80;;;;;;5055457;28;20484;-48
2023/11/08 11:10:18;;;;;;;1.50;0.87;;;11.30;84.20;;;;;;5057986;28;20444;-49
2023/11/08 11:12:57;;;;;;;1.73;1.03;;;11.30;83.60;;;;;;5054517;28;20996;-48
2023/11/08 11:15:36;;;;;;;1.20;0.57;;;11.30;82.80;;;;;;5060923;28;20434;-47
2023/11/08 11:18:09;;;;;;;2.70;0.77;;;11.30;84.70;;;;;;5060943;28;20488;-49
2023/11/08 11:20:46;;;;;;;1.20;0.70;;;11.30;83.60;;;;;;5058349;28;20439;-45
2023/11/08 11:23:30;;;;;;;1.23;0.70;;;11.30;83.90;;;;;;5055494;28;20527;-46
2023/11/08 11:25:58;;;;;;;1.30;0.80;;;11.30;83.50;;;;;;5063654;28;20496;-47
2023/11/08 11:28:51;;;;;;;2.20;0.70;;;11.30;83.50;;;;;;5059524;28;20497;-47
2023/11/08 11:31:37;;;;;;;1.40;0.70;;;11.30;83.70;;;;;;5062619;28;20526;-47
2023/11/08 11:34:45;;;;;;;2.10;0.87;;;11.30;83.50;;;;;;5061992;28;20448;-48
2023/11/08 11:37:18;;;;;;;1.40;0.90;;;11.30;83.70;;;;;;4982669;28;20466;-48
2023/11/08 11:40:19;;;;;;;4.20;1.23;;;11.30;83.70;;;;;;4977134;28;20498;-49
2023/11/08 11:42:47;;;;;;;1.97;0.60;;;11.30;83.00;;;;;;4961879;28;20494;-48
2023/11/08 11:45:17;;;;;;;1.57;0.70;;;11.30;83.40;;;;;;5024109;28;20495;-49
2023/11/08 11:47:51;;;;;;;2.33;1.23;;;11.30;83.70;;;;;;5044825;28;20500;-50
2023/11/08 11:50:20;;;;;;;3.00;0.97;;;11.30;83.20;;;;;;5045946;28;20513;-46
2023/11/08 11:52:50;;;;;;;2.13;0.90;;;11.30;83.50;;;;;;5048341;28;20553;-46
2023/11/08 11:55:20;;;;;;;1.37;0.67;;;11.30;82.90;;;;;;5042842;28;20873;-47
2023/11/08 11:57:48;;;;;;;1.47;0.60;;;11.30;83.40;;;;;;5046184;28;20470;-46
2023/11/08 12:00:17;;;;;;;1.80;0.80;;;11.30;83.30;;;;;;5044756;28;20446;-46
2023/11/08 12:02:45;;;;;;;2.60;0.80;;;11.30;83.30;;;;;;5052005;28;20478;-47
2023/11/08 12:05:14;;;;;;;1.40;0.70;;;11.30;82.90;;;;;;5064296;28;20536;-47
2023/11/08 12:07:42;;;;;;;1.60;0.60;;;11.30;83.10;;;;;;5053979;28;20467;-45
2023/11/08 12:10:18;;;;;;;1.70;0.80;;;11.30;83.50;;;;;;5044904;28;20473;-46
2023/11/08 12:12:46;;;;;;;1.73;0.87;;;11.30;83.10;;;;;;5054613;28;20475;-46
2023/11/08 12:15:17;;;;;;;2.63;0.70;;;11.30;83.10;;;;;;5068661;28;20509;-45
2023/11/08 12:17:49;;;;;;;7.17;1.20;;;11.30;82.70;;;;;;5051679;28;20580;-47
2023/11/08 12:20:24;;;;;;;2.80;1.10;;;11.30;83.10;;;;;;5043538;28;20434;-46
2023/11/08 12:22:54;;;;;;;2.93;0.93;;;11.30;82.60;;;;;;5040898;28;20211;-47
2023/11/08 12:25:24;;;;;;;6.13;1.13;;;11.40;82.30;;;;;;5041169;28;20452;-47
2023/11/08 12:27:55;;;;;;;1.57;0.90;;;11.30;82.50;;;;;;5045179;28;20467;-47
2023/11/08 12:30:25;;;;;;;2.00;1.10;;;11.30;82.10;;;;;;5044408;28;20470;-48
2023/11/08 12:32:55;;;;;;;2.17;0.77;;;11.40;82.40;;;;;;5037475;28;20869;-49
2023/11/08 12:35:24;;;;;;;2.23;1.03;;;11.30;82.30;;;;;;5044526;28;20543;-47
2023/11/08 12:37:57;;;;;;;2.47;1.50;;;11.30;82.10;;;;;;5034549;28;20560;-48
2023/11/08 12:40:27;;;;;;;2.80;1.10;;;11.30;82.20;;;;;;5030346;28;20451;-48
2023/11/08 12:42:55;;;;;;;1.27;0.70;;;11.30;82.50;;;;;;5040458;28;20517;-47
2023/11/08 12:45:44;;;;;;;2.50;1.00;;;11.30;82.30;;;;;;5046658;28;20546;-48
2023/11/08 12:48:35;;;;;;;1.83;0.90;;;11.30;82.00;;;;;;5060330;28;20477;-47
2023/11/08 12:51:05;;;;;;;2.10;1.00;;;11.30;82.40;;;;;;5061295;28;20426;-46
2023/11/08 12:53:34;;;;;;;2.27;1.03;;;11.30;82.60;;;;;;5040656;28;20561;-47
2023/11/08 12:56:08;;;;;;;1.73;0.80;;;11.30;82.00;;;;;;5044364;28;20459;-46
2023/11/08 12:58:37;;;;;;;2.80;0.70;;;11.30;82.10;;;;;;5043634;28;21104;-46
2023/11/08 13:01:06;;;;;;;1.33;0.60;;;11.30;82.10;;;;;;5045430;28;20941;-48